Time;durP1;ratioP1;P1;durP2;ratioP2;P2;SDS_P1;SDS_P2;PMS_P1;PMS_P2;Temp;Humidity;BMP_temperature;BMP_pressure;BME280_temperature;BME280_humidity;BME280_pressure;Samples;Min_cycle;Max_cycle;Signal;HPM_P1;HPM_P2
2024/04/05 00:01:18;;;;;;;7.93;3.67;;;;;;;13.25;100.00;99052.34;4933998;28;20247;-81
2024/04/05 00:03:43;;;;;;;4.95;3.03;;;;;;;13.27;100.00;99037.81;4918782;29;20211;-81
2024/04/05 00:06:09;;;;;;;7.90;3.08;;;;;;;13.28;100.00;99049.88;4917178;29;20703;-80
2024/04/05 00:08:34;;;;;;;6.15;2.83;;;;;;;13.29;100.00;99049.06;4934885;29;20294;-82
2024/04/05 00:11:00;;;;;;;4.50;2.33;;;;;;;13.33;100.00;99045.75;4949294;29;20215;-81
2024/04/05 00:13:25;;;;;;;6.05;2.70;;;;;;;13.32;100.00;99038.84;4917408;29;20237;-81
2024/04/05 00:15:52;;;;;;;8.35;2.90;;;;;;;13.33;100.00;99045.75;4917218;29;20230;-82
2024/04/05 00:18:20;;;;;;;5.50;2.65;;;;;;;13.33;100.00;99043.19;4930949;29;20730;-80
2024/04/05 00:20:47;;;;;;;5.43;2.80;;;;;;;13.34;100.00;99041.47;4938445;29;20332;-81
2024/04/05 00:23:14;;;;;;;4.00;2.90;;;;;;;13.30;100.00;99030.19;4932949;29;20198;-80
2024/04/05 00:25:42;;;;;;;3.95;2.80;;;;;;;13.26;100.00;99028.34;4928665;29;20233;-82
2024/04/05 00:28:08;;;;;;;3.95;2.80;;;;;;;13.24;100.00;99022.22;4931750;29;20222;-81
2024/04/05 00:30:34;;;;;;;4.57;2.60;;;;;;;13.28;100.00;99021.50;4932695;29;20554;-81
2024/04/05 00:33:00;;;;;;;5.88;3.20;;;;;;;13.20;100.00;99030.72;4921572;28;20215;-81
2024/04/05 00:35:26;;;;;;;5.95;2.88;;;;;;;13.21;100.00;99029.88;4949455;28;21015;-81
2024/04/05 00:37:52;;;;;;;4.25;2.72;;;;;;;13.14;100.00;99033.94;4933527;29;20226;-81
2024/04/05 00:40:18;;;;;;;4.35;2.67;;;;;;;13.22;100.00;99026.47;4948421;29;20214;-81
2024/04/05 00:42:44;;;;;;;4.97;2.60;;;;;;;13.22;100.00;99020.44;4926732;29;20203;-81
2024/04/05 00:45:09;;;;;;;5.85;2.67;;;;;;;13.19;100.00;99013.50;4916537;29;20251;-83
2024/04/05 00:47:35;;;;;;;5.97;2.75;;;;;;;13.21;100.00;99016.97;4941750;29;20742;-81
2024/04/05 00:50:04;;;;;;;4.65;2.53;;;;;;;13.21;100.00;99019.56;4943062;29;20198;-80
2024/04/05 00:52:31;;;;;;;4.82;2.33;;;;;;;13.17;100.00;99016.84;4924181;29;20203;-81
2024/04/05 00:54:57;;;;;;;5.05;2.67;;;;;;;13.10;100.00;99013.19;4935525;29;20223;-81
2024/04/05 00:57:24;;;;;;;5.32;2.70;;;;;;;13.06;100.00;99013.88;4926165;29;20234;-82
2024/04/05 00:59:50;;;;;;;4.50;2.22;;;;;;;13.12;100.00;99016.69;4925868;29;20218;-81
2024/04/05 01:02:15;;;;;;;3.90;2.40;;;;;;;12.95;100.00;99015.22;4956430;29;20206;-82
2024/04/05 01:04:41;;;;;;;5.50;2.47;;;;;;;12.99;100.00;99022.22;4933184;28;20237;-82
2024/04/05 01:07:07;;;;;;;4.43;2.30;;;;;;;12.93;100.00;99034.91;4950258;28;20214;-81
2024/04/05 01:09:33;;;;;;;3.67;2.38;;;;;;;12.87;100.00;99024.38;4929066;29;20253;-82
2024/04/05 01:11:59;;;;;;;5.30;2.40;;;;;;;12.87;100.00;99024.38;4918407;29;20237;-81
2024/04/05 01:14:24;;;;;;;4.43;2.30;;;;;;;12.78;100.00;99024.94;4921934;29;20211;-82
2024/04/05 01:16:50;;;;;;;3.30;2.05;;;;;;;12.81;100.00;99031.91;4938175;29;21367;-82
2024/04/05 01:19:17;;;;;;;2.50;2.08;;;;;;;12.73;100.00;99033.31;4920059;29;20218;-83
2024/04/05 01:21:48;;;;;;;4.22;2.10;;;;;;;12.68;100.00;99029.72;4917624;29;20202;-82
2024/04/05 01:24:14;;;;;;;7.18;2.20;;;;;;;12.64;100.00;99024.47;4915855;29;20219;-81
2024/04/05 01:26:40;;;;;;;6.28;2.45;;;;;;;12.56;100.00;99031.03;4948654;29;20596;-82
2024/04/05 01:29:05;;;;;;;2.95;2.10;;;;;;;12.51;100.00;99026.56;4917954;29;20215;-82
2024/04/05 01:31:31;;;;;;;3.95;1.95;;;;;;;12.53;100.00;99030.03;4916626;29;20233;-82
2024/04/05 01:33:57;;;;;;;3.85;1.95;;;;;;;12.42;100.00;99027.06;4918869;29;20682;-82
2024/04/05 01:36:22;;;;;;;3.72;2.00;;;;;;;12.44;100.00;99030.59;4921072;29;20717;-81
2024/04/05 01:38:48;;;;;;;2.58;1.92;;;;;;;12.37;100.00;99040.63;4922148;29;20227;-81
2024/04/05 01:41:13;;;;;;;3.00;1.98;;;;;;;12.22;100.00;99037.47;4920881;29;20287;-81
2024/04/05 01:43:39;;;;;;;2.20;2.00;;;;;;;12.16;100.00;99043.28;4920151;29;20203;-81
2024/04/05 01:46:05;;;;;;;3.13;1.85;;;;;;;12.18;100.00;99051.91;4915823;29;20235;-84
2024/04/05 01:48:31;;;;;;;1.77;1.67;;;;;;;12.15;100.00;99041.50;4945678;28;20227;-82
2024/04/05 01:50:56;;;;;;;2.05;1.90;;;;;;;12.14;100.00;99042.31;4915721;29;20222;-81
2024/04/05 01:53:22;;;;;;;1.70;1.60;;;;;;;12.13;100.00;99043.16;4922839;29;20214;-82
2024/04/05 01:55:47;;;;;;;2.80;2.03;;;;;;;12.00;100.00;99040.91;4917781;29;21244;-82
2024/04/05 01:58:13;;;;;;;3.78;2.10;;;;;;;11.82;100.00;99042.81;4947040;28;20262;-82
2024/04/05 02:00:39;;;;;;;2.17;1.90;;;;;;;11.90;100.00;99043.97;4937267;29;20211;-83
2024/04/05 02:03:05;;;;;;;3.58;2.03;;;;;;;11.71;100.00;99037.25;4937730;29;20211;-85
2024/04/05 02:05:30;;;;;;;4.05;2.13;;;;;;;11.62;100.00;99032.56;4928298;29;20231;-81
2024/04/05 02:07:56;;;;;;;2.80;2.05;;;;;;;11.68;100.00;99031.06;4914948;29;20211;-82
2024/04/05 02:10:22;;;;;;;3.42;2.20;;;;;;;11.61;100.00;99035.09;4920741;29;20218;-84
2024/04/05 02:12:47;;;;;;;3.63;1.92;;;;;;;11.64;100.00;99032.66;4932494;29;20218;-82
2024/04/05 02:15:13;;;;;;;1.85;1.60;;;;;;;11.55;100.00;99039.97;4922424;29;20230;-82
2024/04/05 02:17:39;;;;;;;2.28;1.70;;;;;;;11.51;100.00;99033.88;4926794;29;20237;-81
2024/04/05 02:20:05;;;;;;;2.05;1.85;;;;;;;11.60;100.00;99036.78;4931538;29;20210;-82
2024/04/05 02:22:32;;;;;;;2.25;1.80;;;;;;;11.59;100.00;99029.88;4915462;29;20218;-81
2024/04/05 02:24:57;;;;;;;2.20;2.00;;;;;;;11.48;100.00;99026.00;4921933;28;20496;-81
2024/04/05 02:27:23;;;;;;;2.00;1.70;;;;;;;11.46;100.00;99039.63;4932239;29;20249;-82
2024/04/05 02:29:49;;;;;;;1.80;1.70;;;;;;;11.45;100.00;99033.59;4948508;28;20691;-82
2024/04/05 02:32:14;;;;;;;2.63;1.60;;;;;;;11.50;100.00;99032.09;4931071;29;20591;-82
2024/04/05 02:34:40;;;;;;;2.35;1.83;;;;;;;11.53;100.00;99033.91;4931470;29;20231;-82
2024/04/05 02:37:05;;;;;;;1.88;1.77;;;;;;;11.49;100.00;99037.16;4918968;29;20211;-82
2024/04/05 02:39:31;;;;;;;4.03;1.83;;;;;;;11.49;100.00;99044.88;4913424;29;20242;-82
2024/04/05 02:41:57;;;;;;;2.08;1.58;;;;;;;11.51;100.00;99048.41;4918774;29;20684;-82
2024/04/05 02:44:25;;;;;;;1.98;1.77;;;;;;;11.37;100.00;99054.69;4920054;29;21468;-83
2024/04/05 02:46:51;;;;;;;1.80;1.70;;;;;;;11.36;100.00;99047.78;4922468;29;20211;-82
2024/04/05 02:49:17;;;;;;;2.60;1.80;;;;;;;11.29;100.00;99056.94;4935866;29;20215;-83
2024/04/05 02:51:43;;;;;;;4.38;2.17;;;;;;;11.33;100.00;99053.69;4917956;29;20209;-82
2024/04/05 02:54:09;;;;;;;2.30;2.03;;;;;;;11.40;100.00;99052.22;4919823;29;20210;-83
2024/04/05 02:56:35;;;;;;;2.55;2.35;;;;;;;11.35;100.00;99049.47;4952253;28;20323;-82
2024/04/05 02:59:01;;;;;;;2.92;2.35;;;;;;;11.31;100.00;99037.28;4949687;28;20222;-82
2024/04/05 03:01:26;;;;;;;3.83;2.78;;;;;;;11.20;100.00;99033.44;4918508;29;20211;-82
2024/04/05 03:03:52;;;;;;;4.57;2.55;;;;;;;11.14;100.00;99031.47;4931751;29;20218;-82
2024/04/05 03:06:19;;;;;;;2.28;2.08;;;;;;;11.23;100.00;99036.13;4928094;29;20242;-82
2024/04/05 03:08:45;;;;;;;3.15;2.50;;;;;;;11.23;100.00;99030.09;4921164;29;20210;-82
2024/04/05 03:11:10;;;;;;;2.70;2.20;;;;;;;11.13;100.00;99031.44;4926241;29;20270;-81
2024/04/05 03:13:39;;;;;;;3.65;2.50;;;;;;;11.05;100.00;99015.69;4935570;29;20206;-82
2024/04/05 03:16:04;;;;;;;2.53;2.00;;;;;;;11.16;100.00;99021.28;4914255;29;20223;-83
2024/04/05 03:18:31;;;;;;;2.95;2.00;;;;;;;11.20;100.00;99020.59;4919169;29;20351;-81
2024/04/05 03:20:57;;;;;;;2.20;2.00;;;;;;;11.11;100.00;99015.06;4927875;29;20211;-81
2024/04/05 03:23:23;;;;;;;1.98;1.80;;;;;;;11.19;100.00;99012.81;4917273;29;20285;-81
2024/04/05 03:25:49;;;;;;;2.33;2.00;;;;;;;10.98;100.00;99002.53;4925458;29;20273;-82
2024/04/05 03:28:14;;;;;;;1.95;1.85;;;;;;;11.02;100.00;99004.41;4916479;29;20226;-85
2024/04/05 03:30:40;;;;;;;4.20;2.55;;;;;;;10.96;100.00;99005.00;4913336;29;20202;-83
2024/04/05 03:33:05;;;;;;;2.78;2.30;;;;;;;10.93;100.00;99004.03;4911957;29;20241;-81
2024/04/05 03:35:31;;;;;;;2.30;1.83;;;;;;;10.97;100.00;99011.03;4917448;29;20230;-81
2024/04/05 03:37:57;;;;;;;2.72;2.15;;;;;;;10.88;100.00;99006.41;4918632;29;20227;-81
2024/04/05 03:40:22;;;;;;;3.60;2.17;;;;;;;10.95;100.00;99013.56;4916855;29;20218;-82
2024/04/05 03:42:48;;;;;;;4.20;2.10;;;;;;;10.84;100.00;99011.34;4927142;29;20215;-82
2024/04/05 03:45:14;;;;;;;3.30;2.00;;;;;;;10.87;100.00;99009.78;4933110;29;20222;-81
2024/04/05 03:47:40;;;;;;;3.78;2.20;;;;;;;10.88;100.00;99015.78;4932663;29;20296;-82
2024/04/05 03:50:06;;;;;;;4.10;2.20;;;;;;;10.75;100.00;99024.69;4925727;29;20291;-82
2024/04/05 03:52:31;;;;;;;2.40;2.20;;;;;;;10.82;100.00;99021.56;4950515;28;20202;-82
2024/04/05 03:54:57;;;;;;;5.90;3.30;;;;;;;10.81;100.00;99013.78;4917363;29;20255;-81
2024/04/05 03:57:22;;;;;;;3.40;2.78;;;;;;;10.80;100.00;99014.59;4922821;29;20314;-83
2024/04/05 03:59:48;;;;;;;7.75;3.08;;;;;;;10.79;100.00;99006.00;4917885;29;20206;-83
2024/04/05 04:02:14;;;;;;;3.28;2.95;;;;;;;10.78;100.00;99004.28;4947163;29;20222;-81
2024/04/05 04:04:39;;;;;;;3.58;3.30;;;;;;;10.68;100.00;99012.41;4920360;28;20245;-81
2024/04/05 04:07:05;;;;;;;3.53;3.00;;;;;;;10.69;100.00;99014.13;4929588;29;20270;-82
2024/04/05 04:09:31;;;;;;;3.28;2.97;;;;;;;10.61;100.00;99006.13;4946720;28;20242;-82
2024/04/05 04:11:57;;;;;;;3.20;2.90;;;;;;;10.65;100.00;99007.97;4931368;29;20219;-82
2024/04/05 04:14:23;;;;;;;3.00;2.72;;;;;;;10.70;100.00;99000.50;4930801;28;20714;-82
2024/04/05 04:16:50;;;;;;;3.40;2.38;;;;;;;10.61;100.00;99011.25;4931568;29;20211;-82
2024/04/05 04:19:16;;;;;;;4.50;2.58;;;;;;;10.54;100.00;99010.91;4917573;29;20234;-82
2024/04/05 04:21:42;;;;;;;4.30;2.85;;;;;;;10.41;100.00;98998.38;4915533;29;20210;-82
2024/04/05 04:24:08;;;;;;;5.80;4.05;;;;;;;10.39;100.00;98984.59;4928356;29;20706;-82
2024/04/05 04:26:34;;;;;;;3.40;3.08;;;;;;;10.42;100.00;98994.97;4919900;29;20300;-82
2024/04/05 04:29:00;;;;;;;5.85;4.32;;;;;;;10.42;100.00;98997.53;4914415;29;20654;-81
2024/04/05 04:31:27;;;;;;;4.68;4.20;;;;;;;10.30;100.00;99002.16;4929456;29;20215;-82
2024/04/05 04:33:53;;;;;;;4.07;3.67;;;;;;;10.28;100.00;98996.06;4934677;29;20207;-82
2024/04/05 04:36:19;;;;;;;4.03;3.72;;;;;;;10.29;100.00;99001.25;4918312;29;20234;-82
2024/04/05 04:38:45;;;;;;;5.90;3.88;;;;;;;10.31;100.00;98998.78;4925902;29;20227;-82
2024/04/05 04:41:12;;;;;;;5.50;3.92;;;;;;;10.18;100.00;99007.59;4934512;29;20211;-81
2024/04/05 04:43:42;;;;;;;6.28;3.80;;;;;;;9.98;100.00;98998.09;4910715;29;20232;-82
2024/04/05 04:46:10;;;;;;;4.82;3.33;;;;;;;10.02;100.00;99008.59;4917053;29;20310;-83
2024/04/05 04:48:37;;;;;;;3.58;3.28;;;;;;;10.08;100.00;98997.72;4920370;29;20214;-83
2024/04/05 04:51:03;;;;;;;3.42;3.17;;;;;;;10.13;100.00;99001.38;4930752;29;20583;-81
2024/04/05 04:53:28;;;;;;;4.63;3.25;;;;;;;10.08;100.00;98997.72;4932127;29;20567;-82
2024/04/05 04:55:54;;;;;;;3.83;3.40;;;;;;;10.13;100.00;98992.00;4942956;28;20227;-82
2024/04/05 04:58:23;;;;;;;4.00;3.30;;;;;;;9.89;100.00;98990.91;4908031;29;20270;-83
2024/04/05 05:00:49;;;;;;;5.00;3.05;;;;;;;10.04;100.00;98999.25;4947765;29;20211;-82
2024/04/05 05:03:14;;;;;;;4.72;3.60;;;;;;;10.07;100.00;99008.78;4946495;29;20276;-82
2024/04/05 05:05:40;;;;;;;6.05;4.38;;;;;;;9.94;100.00;99002.22;4925745;29;20714;-82
2024/04/05 05:08:08;;;;;;;5.90;3.65;;;;;;;9.86;100.00;98995.00;4936665;29;20214;-82
2024/04/05 05:10:36;;;;;;;4.38;3.90;;;;;;;9.86;100.00;98987.31;4940418;29;20656;-84
2024/04/05 05:13:02;;;;;;;6.03;4.20;;;;;;;10.00;100.00;98987.09;4922282;29;20668;-82
2024/04/05 05:15:27;;;;;;;4.93;3.50;;;;;;;10.06;100.00;98986.53;4912343;29;20253;-82
2024/04/05 05:17:53;;;;;;;4.30;3.70;;;;;;;9.89;100.00;98988.31;4915476;29;20590;-82
2024/04/05 05:20:22;;;;;;;6.45;4.00;;;;;;;9.86;100.00;98987.31;4930285;29;20210;-82
2024/04/05 05:22:48;;;;;;;3.63;3.20;;;;;;;9.98;100.00;98978.47;4946631;29;20210;-82
2024/04/05 05:25:14;;;;;;;3.50;3.17;;;;;;;9.97;100.00;98980.97;4914793;29;20235;-81
2024/04/05 05:27:40;;;;;;;4.28;3.35;;;;;;;9.88;100.00;98975.44;4921096;29;20206;-81
2024/04/05 05:30:06;;;;;;;3.28;2.97;;;;;;;10.06;100.00;98972.00;4920636;29;20219;-81
2024/04/05 05:32:32;;;;;;;7.13;3.08;;;;;;;10.18;100.00;98965.69;4918442;29;20207;-82
2024/04/05 05:34:57;;;;;;;2.80;2.53;;;;;;;10.28;100.00;98968.72;4912524;29;20246;-82
2024/04/05 05:37:23;;;;;;;3.13;2.50;;;;;;;10.43;100.00;98964.25;4915221;29;20268;-83
2024/04/05 05:39:49;;;;;;;2.90;2.70;;;;;;;10.50;100.00;98973.97;4911486;29;20208;-82
2024/04/05 05:42:14;;;;;;;2.75;2.50;;;;;;;10.58;100.00;98974.31;4915216;29;20214;-82
2024/04/05 05:44:40;;;;;;;3.55;2.88;;;;;;;10.48;100.00;98978.16;4942466;28;20219;-82
2024/04/05 05:47:06;;;;;;;4.38;3.22;;;;;;;10.47;100.00;98976.41;4927407;29;20214;-84
2024/04/05 05:49:31;;;;;;;4.60;4.20;;;;;;;10.44;100.00;98971.16;4925074;29;20665;-83
2024/04/05 05:51:57;;;;;;;6.93;4.78;;;;;;;10.54;100.00;98952.75;4914134;29;20211;-82
2024/04/05 05:54:23;;;;;;;5.82;4.43;;;;;;;10.57;100.00;98941.75;4929758;28;20233;-82
2024/04/05 05:56:53;;;;;;;4.32;3.75;;;;;;;10.60;100.00;98917.06;4934082;29;20246;-82
2024/04/05 05:59:19;;;;;;;3.92;3.63;;;;;;;10.64;100.00;98913.81;4912440;29;20227;-82
2024/04/05 06:01:44;;;;;;;3.75;3.35;;;;;;;10.72;100.00;98910.69;4930422;29;20283;-82
2024/04/05 06:04:10;;;;;;;3.67;3.30;;;;;;;10.81;100.00;98911.06;4925786;29;20215;-82
2024/04/05 06:06:37;;;;;;;3.80;3.47;;;;;;;10.86;100.00;98905.28;4933838;29;20261;-81
2024/04/05 06:09:05;;;;;;;4.35;3.00;;;;;;;10.92;100.00;98907.25;4942288;29;20211;-81
2024/04/05 06:11:32;;;;;;;4.45;3.25;;;;;;;10.94;100.00;98908.16;4924406;29;20218;-85
2024/04/05 06:13:58;;;;;;;4.45;2.80;;;;;;;11.07;100.00;98912.97;4916885;29;20214;-81
2024/04/05 06:16:24;;;;;;;3.38;2.80;;;;;;;11.19;100.00;98913.47;4921807;29;20302;-81
2024/04/05 06:18:49;;;;;;;3.13;2.83;;;;;;;11.27;100.00;98901.81;4920864;29;20636;-82
2024/04/05 06:21:15;;;;;;;3.33;2.95;;;;;;;11.31;100.00;98895.09;4947958;29;20357;-81
2024/04/05 06:23:41;;;;;;;3.42;3.08;;;;;;;11.40;100.00;98904.03;4919662;29;20238;-82
2024/04/05 06:26:06;;;;;;;5.07;3.00;;;;;;;11.54;100.00;98902.84;4938685;29;20641;-83
2024/04/05 06:28:33;;;;;;;2.65;2.38;;;;;;;11.66;100.00;98898.16;4923899;29;20199;-82
2024/04/05 06:31:01;;;;;;;4.03;2.60;;;;;;;11.70;100.00;98903.41;4921875;29;20214;-84
2024/04/05 06:33:27;;;;;;;6.90;3.05;;;;;;;11.69;100.00;98902.53;4931382;29;20211;-82
2024/04/05 06:36:02;;;;;;;3.60;2.67;;;;;;;11.76;100.00;98895.94;4928452;29;20285;-79
2024/04/05 06:38:29;;;;;;;3.00;2.70;;;;;;;11.77;100.00;98901.16;4935514;28;20234;-79
2024/04/05 06:40:56;;;;;;;4.22;2.88;;;;;;;11.76;100.00;98901.97;4918407;29;20211;-79
2024/04/05 06:43:21;;;;;;;2.72;2.30;;;;;;;11.83;100.00;98913.34;4916188;29;20237;-79
2024/04/05 06:45:54;;;;;;;5.65;2.75;;;;;;;11.75;100.00;98914.78;4921946;29;21032;-79
2024/04/05 06:48:19;;;;;;;3.10;2.63;;;;;;;11.77;100.00;98913.13;4917432;29;20573;-79
2024/04/05 06:50:46;;;;;;;4.60;2.50;;;;;;;11.95;100.00;98903.53;4931480;29;20219;-78
2024/04/05 06:53:12;;;;;;;4.90;2.75;;;;;;;12.20;100.00;98895.88;4921996;29;20206;-79
2024/04/05 06:55:37;;;;;;;2.88;2.55;;;;;;;12.43;100.00;98894.97;4932646;28;20225;-79
2024/04/05 06:58:03;;;;;;;3.45;2.60;;;;;;;12.55;100.00;98887.63;4919511;29;20231;-79
2024/04/05 07:00:28;;;;;;;3.25;2.60;;;;;;;12.82;100.00;98889.38;4942159;29;20290;-79
2024/04/05 07:02:54;;;;;;;4.50;2.72;;;;;;;13.15;100.00;98882.75;4920857;29;20235;-78
2024/04/05 07:05:20;;;;;;;5.68;3.20;;;;;;;13.44;100.00;98878.47;4942918;29;20227;-79
2024/04/05 07:07:45;;;;;;;5.55;3.50;;;;;;;13.76;100.00;98869.94;4914351;29;20199;-79
2024/04/05 07:10:11;;;;;;;3.08;2.55;;;;;;;14.05;100.00;98871.66;4923673;29;20270;-79
2024/04/05 07:12:36;;;;;;;4.32;2.65;;;;;;;14.37;100.00;98879.44;4936504;29;20259;-79
2024/04/05 07:15:05;;;;;;;4.00;2.40;;;;;;;14.53;100.00;98866.94;4914632;29;20231;-81
2024/04/05 07:17:31;;;;;;;4.68;2.15;;;;;;;14.75;100.00;98873.53;4913171;29;20215;-80
2024/04/05 07:19:56;;;;;;;2.78;2.13;;;;;;;14.76;100.00;98879.53;4931486;29;20211;-80
2024/04/05 07:22:22;;;;;;;2.95;1.92;;;;;;;14.88;100.00;98874.69;4911687;29;20204;-80
2024/04/05 07:24:48;;;;;;;2.83;1.70;;;;;;;15.02;100.00;98883.66;4929208;29;20231;-79
2024/04/05 07:27:13;;;;;;;4.07;2.20;;;;;;;15.16;100.00;98879.69;4917184;29;20202;-80
2024/04/05 07:29:43;;;;;;;5.53;2.30;;;;;;;15.22;100.00;98886.69;4912381;29;20214;-80
2024/04/05 07:32:09;;;;;;;2.20;2.00;;;;;;;15.39;100.00;98880.19;4931603;29;20245;-80
2024/04/05 07:34:35;;;;;;;2.28;2.00;;;;;;;15.34;100.00;98872.31;4945316;29;20274;-80
2024/04/05 07:37:00;;;;;;;2.85;1.85;;;;;;;15.55;100.00;98872.81;4930230;29;20726;-80
2024/04/05 07:39:26;;;;;;;3.70;1.70;;;;;;;15.71;99.65;98875.75;4918965;29;20227;-80
2024/04/05 07:41:52;;;;;;;2.53;1.70;;;;;;;15.66;100.00;98881.69;4946412;29;20210;-80
2024/04/05 07:44:19;;;;;;;4.13;2.03;;;;;;;15.55;94.96;98888.34;4949912;29;20214;-80
2024/04/05 07:46:45;;;;;;;4.10;1.80;;;;;;;15.58;96.52;98893.56;4930532;28;20696;-80
2024/04/05 07:49:11;;;;;;;1.80;1.70;;;;;;;15.63;95.72;98879.03;4916649;29;20221;-79
2024/04/05 07:51:36;;;;;;;2.33;1.80;;;;;;;15.74;94.62;98893.91;4919853;29;20207;-80
2024/04/05 07:54:02;;;;;;;3.10;2.17;;;;;;;15.90;96.29;98883.91;4945326;29;20214;-80
2024/04/05 07:56:27;;;;;;;3.60;1.83;;;;;;;16.18;91.98;98887.91;4935894;29;20313;-79
2024/04/05 07:58:53;;;;;;;1.60;1.50;;;;;;;16.42;93.66;98890.97;4944609;28;20283;-79
2024/04/05 08:01:19;;;;;;;1.92;1.83;;;;;;;16.51;95.99;98887.69;4949625;28;20253;-80
2024/04/05 08:03:44;;;;;;;2.80;1.60;;;;;;;16.25;90.30;98889.78;4941512;28;20207;-80
2024/04/05 08:06:10;;;;;;;3.17;1.90;;;;;;;16.29;89.28;98882.94;4916074;29;20259;-79
2024/04/05 08:08:36;;;;;;;3.72;1.80;;;;;;;16.33;89.00;98883.03;4914248;29;20203;-79
2024/04/05 08:11:03;;;;;;;2.72;1.27;;;;;;;16.49;90.44;98877.28;4923964;29;20213;-80
2024/04/05 08:13:29;;;;;;;2.08;1.77;;;;;;;16.51;90.19;98872.97;4918735;29;20631;-79
2024/04/05 08:15:55;;;;;;;2.88;1.42;;;;;;;16.79;91.80;98882.13;4916302;29;20234;-80
2024/04/05 08:18:21;;;;;;;2.03;1.73;;;;;;;16.89;87.69;98881.47;4909785;29;20334;-79
2024/04/05 08:20:46;;;;;;;3.25;1.77;;;;;;;16.90;86.11;98879.72;4930390;29;20273;-79
2024/04/05 08:23:12;;;;;;;3.22;1.33;;;;;;;17.02;87.64;98885.13;4912516;29;20292;-79
2024/04/05 08:25:38;;;;;;;1.95;1.73;;;;;;;16.93;86.53;98882.34;4915919;29;20238;-80
2024/04/05 08:28:04;;;;;;;2.47;1.83;;;;;;;16.82;86.04;98886.53;4931188;29;20270;-80
2024/04/05 08:30:29;;;;;;;1.63;1.50;;;;;;;16.89;85.16;98885.78;4914418;29;20210;-80
2024/04/05 08:32:55;;;;;;;3.03;1.83;;;;;;;16.97;85.46;98887.63;4929778;29;20249;-80
2024/04/05 08:35:21;;;;;;;1.85;1.55;;;;;;;17.51;85.51;98886.72;4943175;28;20235;-79
2024/04/05 08:37:46;;;;;;;1.60;1.50;;;;;;;17.49;84.29;98880.63;4931338;29;20609;-79
2024/04/05 08:40:12;;;;;;;2.35;1.63;;;;;;;17.55;86.11;98891.06;4917318;29;20206;-80
2024/04/05 08:42:38;;;;;;;2.40;1.73;;;;;;;17.76;84.02;98891.41;4934185;29;20202;-80
2024/04/05 08:45:05;;;;;;;1.75;1.65;;;;;;;17.90;83.58;98888.97;4930619;29;20226;-79
2024/04/05 08:47:34;;;;;;;3.67;1.55;;;;;;;17.81;80.38;98888.88;4915180;29;20213;-80
2024/04/05 08:50:02;;;;;;;3.13;1.70;;;;;;;17.90;82.38;98873.38;4913979;29;20549;-80
2024/04/05 08:52:28;;;;;;;1.90;1.50;;;;;;;17.98;80.77;98870.03;4925092;29;20210;-80
2024/04/05 08:54:56;;;;;;;1.70;1.52;;;;;;;17.96;79.89;98869.13;4914643;29;20718;-80
2024/04/05 08:57:28;;;;;;;2.42;2.00;;;;;;;18.15;77.36;98870.22;4917279;29;20234;-79
2024/04/05 08:59:55;;;;;;;3.50;2.28;;;;;;;18.31;79.28;98866.94;4945295;28;20557;-79
2024/04/05 09:02:23;;;;;;;3.78;1.55;;;;;;;18.27;78.62;98864.31;4944181;28;20206;-79
2024/04/05 09:04:51;;;;;;;1.95;1.80;;;;;;;18.45;79.81;98869.66;4932794;29;20664;-79
2024/04/05 09:07:16;;;;;;;2.50;1.67;;;;;;;18.67;77.25;98861.25;4912870;29;20210;-79
2024/04/05 09:09:46;;;;;;;2.45;2.00;;;;;;;18.45;75.56;98867.06;4910943;29;20207;-80
2024/04/05 09:12:14;;;;;;;4.25;2.17;;;;;;;18.70;75.74;98855.19;4914026;29;20207;-79
2024/04/05 09:14:41;;;;;;;2.63;1.80;;;;;;;18.98;79.69;98846.78;4932206;29;20203;-79
2024/04/05 09:17:13;;;;;;;2.28;2.03;;;;;;;19.37;76.85;98859.19;4930732;28;20226;-80
2024/04/05 09:19:39;;;;;;;1.77;1.50;;;;;;;19.13;75.72;98862.50;4930048;29;20250;-80
2024/04/05 09:22:05;;;;;;;2.75;1.55;;;;;;;18.79;73.75;98852.69;4921769;29;20673;-80
2024/04/05 09:24:31;;;;;;;2.65;1.75;;;;;;;18.77;74.14;98857.00;4914681;29;20215;-81
2024/04/05 09:27:03;;;;;;;1.90;1.70;;;;;;;18.77;75.72;98870.00;4930165;29;20207;-79
2024/04/05 09:29:29;;;;;;;3.17;1.52;;;;;;;18.70;77.07;98876.00;4924142;29;20223;-79
2024/04/05 09:31:55;;;;;;;1.42;1.33;;;;;;;18.63;76.09;98880.28;4909106;29;20691;-78
2024/04/05 09:34:25;;;;;;;1.48;1.38;;;;;;;18.55;75.33;98877.59;4930183;29;20210;-77
2024/04/05 09:36:50;;;;;;;2.15;1.65;;;;;;;18.62;76.72;98883.72;4928338;29;20238;-77
2024/04/05 09:39:18;;;;;;;2.72;1.98;;;;;;;18.69;76.38;98895.94;4931772;29;20610;-77
2024/04/05 09:41:46;;;;;;;3.00;2.10;;;;;;;18.66;75.37;98885.50;4938247;29;20215;-78
2024/04/05 09:44:12;;;;;;;2.47;2.10;;;;;;;18.80;74.72;98888.25;4926473;29;20628;-78
2024/04/05 09:46:37;;;;;;;2.58;1.42;;;;;;;18.96;74.52;98896.19;4940585;29;20275;-78
2024/04/05 09:49:03;;;;;;;2.00;1.80;;;;;;;19.05;75.60;98906.69;4933326;29;20207;-77
2024/04/05 09:51:51;;;;;;;3.40;1.63;;;;;;;18.93;72.41;98895.28;4933198;29;20214;-78
2024/04/05 09:54:19;;;;;;;2.88;2.65;;;;;;;19.30;73.62;98884.31;4923216;29;20214;-78
2024/04/05 09:56:47;;;;;;;3.42;2.45;;;;;;;19.29;72.82;98879.09;4928949;28;20245;-77
2024/04/05 09:59:21;;;;;;;10.85;9.95;;;;;;;19.15;71.55;98881.59;4930202;29;20230;-75
2024/04/05 10:01:49;;;;;;;8.10;7.30;;;;;;;19.06;75.19;98891.94;4915529;29;20579;-77
2024/04/05 10:04:15;;;;;;;4.20;3.65;;;;;;;18.96;74.54;98900.53;4945085;29;20770;-77
2024/04/05 10:06:42;;;;;;;2.67;2.33;;;;;;;19.00;74.30;98907.47;4918373;29;20231;-78
2024/04/05 10:09:21;;;;;;;3.13;2.50;;;;;;;19.03;74.03;98916.19;4924967;29;20687;-78
2024/04/05 10:11:50;;;;;;;2.03;1.90;;;;;;;19.00;73.82;98917.88;4932529;29;20548;-78
2024/04/05 10:14:36;;;;;;;2.70;1.98;;;;;;;19.03;75.19;98912.75;4933238;29;20214;-78
2024/04/05 10:17:09;;;;;;;4.15;2.00;;;;;;;18.81;74.47;98910.78;4941580;28;20687;-78
2024/04/05 10:19:37;;;;;;;3.60;2.53;;;;;;;18.91;76.15;98902.22;4930673;29;20238;-77
2024/04/05 10:22:04;;;;;;;2.58;2.38;;;;;;;18.89;74.41;98898.75;4946225;28;20214;-76
2024/04/05 10:24:30;;;;;;;1.88;1.60;;;;;;;18.98;72.36;98904.88;4926441;28;20208;-76
2024/04/05 10:26:56;;;;;;;3.80;3.50;;;;;;;19.13;72.94;98904.16;4927566;29;20206;-76
2024/04/05 10:29:23;;;;;;;3.88;2.20;;;;;;;19.13;72.83;98920.59;4940563;29;20294;-76
2024/04/05 10:31:48;;;;;;;2.15;1.92;;;;;;;19.08;73.77;98898.03;4925414;29;20206;-78
2024/04/05 10:34:23;;;;;;;2.20;2.00;;;;;;;19.28;73.63;98891.22;4949271;29;20707;-78
2024/04/05 10:36:48;;;;;;;4.88;3.22;;;;;;;19.29;73.71;98900.78;4939755;29;20273;-78
2024/04/05 10:39:18;;;;;;;3.80;3.50;;;;;;;19.33;74.12;98902.56;4926294;29;20231;-78
2024/04/05 10:41:45;;;;;;;4.20;3.63;;;;;;;19.29;73.92;98897.31;4937536;29;20215;-78
2024/04/05 10:44:13;;;;;;;3.53;3.22;;;;;;;19.23;71.90;98892.06;4922155;29;20222;-78
2024/04/05 10:46:45;;;;;;;4.80;2.38;;;;;;;19.36;73.90;98881.75;4913703;29;20282;-78
2024/04/05 10:49:11;;;;;;;3.13;2.83;;;;;;;19.25;73.29;98872.09;4911884;29;20210;-78
2024/04/05 10:51:37;;;;;;;3.17;2.22;;;;;;;19.33;73.22;98870.44;4927065;28;20784;-78
2024/04/05 10:54:07;;;;;;;3.95;3.60;;;;;;;19.37;73.47;98872.19;4923228;29;20207;-78
2024/04/05 10:56:38;;;;;;;5.35;4.85;;;;;;;19.27;73.50;98862.59;4929066;29;20231;-78
2024/04/05 10:59:11;;;;;;;4.90;4.10;;;;;;;19.19;74.66;98852.13;4916154;29;20695;-78
2024/04/05 11:01:38;;;;;;;3.47;2.78;;;;;;;19.19;71.92;98841.72;4943949;29;20203;-78
2024/04/05 11:04:04;;;;;;;2.75;2.55;;;;;;;19.28;73.66;98831.34;4925171;29;20234;-79
2024/04/05 11:06:31;;;;;;;3.33;2.67;;;;;;;19.16;72.00;98847.78;4930728;29;20228;-78
2024/04/05 11:08:57;;;;;;;2.30;1.80;;;;;;;19.30;73.32;98854.81;4917976;29;20203;-76
2024/04/05 11:11:23;;;;;;;2.92;1.63;;;;;;;19.31;72.70;98854.78;4925695;29;20214;-76
2024/04/05 11:13:48;;;;;;;1.63;1.52;;;;;;;19.36;72.48;98860.91;4924046;29;20233;-76
2024/04/05 11:16:17;;;;;;;2.55;2.35;;;;;;;19.69;74.24;98872.44;4932102;29;20231;-77
2024/04/05 11:18:44;;;;;;;2.58;2.38;;;;;;;19.70;70.67;98855.91;4927192;29;20227;-76
2024/04/05 11:21:14;;;;;;;1.88;1.50;;;;;;;19.80;70.56;98873.31;4934970;29;20237;-76
2024/04/05 11:23:51;;;;;;;4.47;2.78;;;;;;;20.00;71.84;98882.97;4940396;29;20289;-76
2024/04/05 11:26:31;;;;;;;2.63;2.10;;;;;;;19.83;70.02;98868.13;4942148;28;20237;-76